Charlo, New Brunswick

10:08 AM ADT on August 01, 2015 (GMT -0300)
Bathurst | | Change Station
CLOSE
Current Station
Airport
Location: Bathurst Airport Aviation,
Elevation: 194 ft
Nearby Weather Stations

Elev 194 ft 47.63 °N, 65.75 °W | Updated 8 minutes ago

Partly Cloudy
Partly Cloudy
72 °F
Feels Like 72 °F
N
4
Wind Variable Wind from Variable

Today is forecast to be nearly the same temperature as yesterday.

Today
High -- | Low -- °F
--% Chance of Precip.
Yesterday
High -- | Low -- °F
Precip. -- in
6:01 AM 9:01 PM
Full, 98% visible
Pressure 29.66 in
Visibility 15.0 miles
Clouds Few 2600 ft
Few 16000 ft
Dew Point 61 °F
Humidity 69%
Rainfall 0.00 in
Snow Depth Not available.
UV 4 out of 12
Pollen Not available.
Air Quality Not available.
Flu Activity Not available.
METAR CZBF 011300Z VRB03KT 15SM FEW026 FEW160 22/16 A2965 RMK SC1AC1 SC TR AC TR SLP042 DENSITY ALT 1400FT

More Conditions Fewer Conditions

Pressure 29.66 in
Visibility 15.0 miles
Clouds Few 2600 ft
Few 16000 ft
Dew Point 61 °F
Humidity 69%
Rainfall 0.00 in
Snow Depth Not available.
UV 4 out of 12
Pollen Not available.
Air Quality Not available.
Flu Activity Not available.
METAR CZBF 011300Z VRB03KT 15SM FEW026 FEW160 22/16 A2965 RMK SC1AC1 SC TR AC TR SLP042 DENSITY ALT 1400FT

More Conditions Fewer Conditions

10-Day Weather Forecast

×

Almanac

Astronomy

Aug. 01, 2015 Rise Set
Actual Time
Civil Twilight
Nautical Twilight
Astronomical Twilight
Moon
Length of Visible Light
Length of Day
Tomorrow will be .
, % of the Moon is Illuminated

Today's Extremes

Country Highs Country Lows

Community

WunderPhotos

Upload Photos

1,842,935 photos uploaded!

WunderBlogs® & News

Nearby

Air Quality

  Air Quality AQ Index Pollutant
Not available.

Snow Depth

Station Depth Elevation

Earthquake Activity

City Distance Mag. Time & Date
Minimum magnitude displayed is 2.5.

Coastal Water Temperatures

Place Temperature

Stations

Nearby Weather Stations

Station Location Temp. Windchill Dew Point Humidity Wind Precip. Elev Updated Type